sensor_id;sensor_type;location;lat;lon;timestamp;pressure;altitude;pressure_sealevel;temperature;humidity
24666;BME280;29726;53.532;-1.478;2023-02-14T00:01:30;102022.97;;;12.01;95.83
24666;BME280;29726;53.532;-1.478;2023-02-14T00:04:16;102022.53;;;12.03;95.84
24666;BME280;29726;53.532;-1.478;2023-02-14T00:07:00;102027.88;;;11.97;95.76
24666;BME280;29726;53.532;-1.478;2023-02-14T00:09:44;102022.47;;;11.90;95.62
24666;BME280;29726;53.532;-1.478;2023-02-14T00:12:28;102014.97;;;11.87;95.59
24666;BME280;29726;53.532;-1.478;2023-02-14T00:15:12;102024.47;;;11.90;95.54
24666;BME280;29726;53.532;-1.478;2023-02-14T00:18:05;102019.88;;;11.83;95.39
24666;BME280;29726;53.532;-1.478;2023-02-14T00:20:49;102014.78;;;11.78;95.27
24666;BME280;29726;53.532;-1.478;2023-02-14T00:23:33;102012.59;;;11.70;95.39
24666;BME280;29726;53.532;-1.478;2023-02-14T00:26:17;102010.25;;;11.68;95.39
24666;BME280;29726;53.532;-1.478;2023-02-14T00:29:01;102013.84;;;11.69;95.14
24666;BME280;29726;53.532;-1.478;2023-02-14T00:31:46;102011.56;;;11.64;95.08
24666;BME280;29726;53.532;-1.478;2023-02-14T00:34:30;102004.84;;;11.62;95.03
24666;BME280;29726;53.532;-1.478;2023-02-14T00:37:16;102000.63;;;11.53;94.87
24666;BME280;29726;53.532;-1.478;2023-02-14T00:40:00;101987.00;;;11.40;94.85
24666;BME280;29726;53.532;-1.478;2023-02-14T00:42:44;101993.63;;;11.46;94.88
24666;BME280;29726;53.532;-1.478;2023-02-14T00:45:28;102003.16;;;11.48;94.82
24666;BME280;29726;53.532;-1.478;2023-02-14T00:48:12;101989.00;;;11.39;94.71
24666;BME280;29726;53.532;-1.478;2023-02-14T00:50:56;101990.56;;;11.40;94.58
24666;BME280;29726;53.532;-1.478;2023-02-14T00:53:40;101995.47;;;11.36;94.57
24666;BME280;29726;53.532;-1.478;2023-02-14T00:56:24;101996.34;;;11.33;94.48
24666;BME280;29726;53.532;-1.478;2023-02-14T00:59:08;102002.72;;;11.34;94.46
24666;BME280;29726;53.532;-1.478;2023-02-14T01:01:52;101990.94;;;11.26;94.45
24666;BME280;29726;53.532;-1.478;2023-02-14T01:04:36;101992.94;;;11.26;94.16
24666;BME280;29726;53.532;-1.478;2023-02-14T01:07:20;101984.72;;;11.19;94.48
24666;BME280;29726;53.532;-1.478;2023-02-14T01:10:06;101981.56;;;11.17;94.31
24666;BME280;29726;53.532;-1.478;2023-02-14T01:12:50;101989.50;;;11.18;94.29
24666;BME280;29726;53.532;-1.478;2023-02-14T01:15:38;101962.34;;;11.03;94.16
24666;BME280;29726;53.532;-1.478;2023-02-14T01:18:22;101966.72;;;11.04;94.05
24666;BME280;29726;53.532;-1.478;2023-02-14T01:21:23;101967.41;;;11.08;94.14
24666;BME280;29726;53.532;-1.478;2023-02-14T01:24:12;101960.84;;;10.98;93.99
24666;BME280;29726;53.532;-1.478;2023-02-14T01:26:57;101948.19;;;10.94;94.12
24666;BME280;29726;53.532;-1.478;2023-02-14T01:29:41;101946.69;;;10.89;93.90
24666;BME280;29726;53.532;-1.478;2023-02-14T01:32:25;101955.00;;;10.93;94.22
24666;BME280;29726;53.532;-1.478;2023-02-14T01:35:09;101958.16;;;10.95;94.14
24666;BME280;29726;53.532;-1.478;2023-02-14T01:37:53;101951.94;;;10.87;93.96
24666;BME280;29726;53.532;-1.478;2023-02-14T01:40:42;101942.22;;;10.76;94.11
24666;BME280;29726;53.532;-1.478;2023-02-14T01:43:26;101958.28;;;10.88;94.00
24666;BME280;29726;53.532;-1.478;2023-02-14T01:46:11;101956.13;;;10.79;93.87
24666;BME280;29726;53.532;-1.478;2023-02-14T01:49:04;101880.06;;;10.20;93.82
24666;BME280;29726;53.532;-1.478;2023-02-14T01:51:59;101939.94;;;10.71;93.75
24666;BME280;29726;53.532;-1.478;2023-02-14T01:54:58;101942.47;;;10.65;93.63
24666;BME280;29726;53.532;-1.478;2023-02-14T01:57:46;101938.50;;;10.63;93.68
24666;BME280;29726;53.532;-1.478;2023-02-14T02:00:32;101958.69;;;10.70;93.55
24666;BME280;29726;53.532;-1.478;2023-02-14T02:03:43;101952.41;;;10.66;93.47
24666;BME280;29726;53.532;-1.478;2023-02-14T02:06:32;101956.84;;;10.64;93.30
24666;BME280;29726;53.532;-1.478;2023-02-14T02:09:30;101972.47;;;10.61;93.29
24666;BME280;29726;53.532;-1.478;2023-02-14T02:12:15;101970.56;;;10.58;93.38
24666;BME280;29726;53.532;-1.478;2023-02-14T02:14:59;101973.41;;;10.55;93.06
24666;BME280;29726;53.532;-1.478;2023-02-14T02:18:06;101970.25;;;10.53;93.24
24666;BME280;29726;53.532;-1.478;2023-02-14T02:42:53;101918.25;;;10.23;92.86
24666;BME280;29726;53.532;-1.478;2023-02-14T02:56:18;101904.88;;;10.15;92.75
24666;BME280;29726;53.532;-1.478;2023-02-14T02:59:34;101913.69;;;10.13;92.71
24666;BME280;29726;53.532;-1.478;2023-02-14T03:02:24;101918.47;;;10.13;92.74
24666;BME280;29726;53.532;-1.478;2023-02-14T03:05:11;101931.31;;;10.10;92.79
24666;BME280;29726;53.532;-1.478;2023-02-14T03:07:55;101919.03;;;10.04;92.65
24666;BME280;29726;53.532;-1.478;2023-02-14T03:10:39;101905.56;;;9.99;92.61
24666;BME280;29726;53.532;-1.478;2023-02-14T03:17:09;101894.28;;;9.87;92.24
24666;BME280;29726;53.532;-1.478;2023-02-14T03:23:26;101904.06;;;9.95;92.37
24666;BME280;29726;53.532;-1.478;2023-02-14T03:26:34;101894.56;;;9.92;92.51
24666;BME280;29726;53.532;-1.478;2023-02-14T03:33:08;101892.41;;;9.81;92.45
24666;BME280;29726;53.532;-1.478;2023-02-14T03:36:09;101905.84;;;9.85;92.48
24666;BME280;29726;53.532;-1.478;2023-02-14T03:39:02;101889.75;;;9.74;92.54
24666;BME280;29726;53.532;-1.478;2023-02-14T03:41:52;101908.72;;;9.82;92.60
24666;BME280;29726;53.532;-1.478;2023-02-14T03:44:40;101900.78;;;9.81;92.07
24666;BME280;29726;53.532;-1.478;2023-02-14T03:47:32;101901.63;;;9.78;92.40
24666;BME280;29726;53.532;-1.478;2023-02-14T03:50:18;101913.59;;;9.78;92.24
24666;BME280;29726;53.532;-1.478;2023-02-14T03:53:07;101888.59;;;9.71;92.08
24666;BME280;29726;53.532;-1.478;2023-02-14T03:56:02;101897.78;;;9.72;92.29
24666;BME280;29726;53.532;-1.478;2023-02-14T03:58:56;101900.13;;;9.73;92.28
24666;BME280;29726;53.532;-1.478;2023-02-14T04:01:49;101889.06;;;9.70;92.23
24666;BME280;29726;53.532;-1.478;2023-02-14T04:04:38;101892.25;;;9.68;92.30
24666;BME280;29726;53.532;-1.478;2023-02-14T04:07:24;101884.38;;;9.63;92.31
24666;BME280;29726;53.532;-1.478;2023-02-14T04:10:08;101852.84;;;9.47;92.34
24666;BME280;29726;53.532;-1.478;2023-02-14T04:12:53;101892.34;;;9.65;92.22
24666;BME280;29726;53.532;-1.478;2023-02-14T04:15:37;101874.50;;;9.59;92.37
24666;BME280;29726;53.532;-1.478;2023-02-14T04:18:21;101886.47;;;9.59;92.39
24666;BME280;29726;53.532;-1.478;2023-02-14T04:21:24;101871.88;;;9.52;92.34
24666;BME280;29726;53.532;-1.478;2023-02-14T04:24:08;101876.94;;;9.57;92.19
24666;BME280;29726;53.532;-1.478;2023-02-14T04:26:52;101874.28;;;9.50;92.41
24666;BME280;29726;53.532;-1.478;2023-02-14T04:29:54;101872.78;;;9.45;92.51
24666;BME280;29726;53.532;-1.478;2023-02-14T04:32:40;101868.41;;;9.44;92.31
24666;BME280;29726;53.532;-1.478;2023-02-14T04:35:24;101863.75;;;9.38;92.16
24666;BME280;29726;53.532;-1.478;2023-02-14T04:38:09;101869.63;;;9.43;92.38
24666;BME280;29726;53.532;-1.478;2023-02-14T04:41:03;101879.88;;;9.50;92.28
24666;BME280;29726;53.532;-1.478;2023-02-14T04:43:47;101863.41;;;9.36;92.19
24666;BME280;29726;53.532;-1.478;2023-02-14T04:46:31;101879.22;;;9.42;92.20
24666;BME280;29726;53.532;-1.478;2023-02-14T04:49:15;101859.91;;;9.32;92.39
24666;BME280;29726;53.532;-1.478;2023-02-14T04:52:00;101881.94;;;9.46;92.26
24666;BME280;29726;53.532;-1.478;2023-02-14T04:54:44;101881.22;;;9.42;92.23
24666;BME280;29726;53.532;-1.478;2023-02-14T04:57:28;101874.53;;;9.36;92.18
24666;BME280;29726;53.532;-1.478;2023-02-14T05:00:12;101895.94;;;9.42;92.32
24666;BME280;29726;53.532;-1.478;2023-02-14T05:02:56;101833.72;;;9.06;92.32
24666;BME280;29726;53.532;-1.478;2023-02-14T05:05:40;101885.69;;;9.36;92.15
24666;BME280;29726;53.532;-1.478;2023-02-14T05:08:24;101881.69;;;9.37;91.95
24666;BME280;29726;53.532;-1.478;2023-02-14T05:11:08;101883.34;;;9.34;92.18
24666;BME280;29726;53.532;-1.478;2023-02-14T05:13:55;101880.63;;;9.31;91.84
24666;BME280;29726;53.532;-1.478;2023-02-14T05:16:39;101886.69;;;9.26;91.98
24666;BME280;29726;53.532;-1.478;2023-02-14T05:19:23;101881.47;;;9.28;91.89
24666;BME280;29726;53.532;-1.478;2023-02-14T05:22:07;101900.13;;;9.31;92.06
24666;BME280;29726;53.532;-1.478;2023-02-14T05:24:51;101893.81;;;9.27;92.10
24666;BME280;29726;53.532;-1.478;2023-02-14T05:27:35;101888.66;;;9.25;91.91
24666;BME280;29726;53.532;-1.478;2023-02-14T05:30:19;101887.53;;;9.23;92.18
24666;BME280;29726;53.532;-1.478;2023-02-14T05:33:09;101891.03;;;9.27;91.85
24666;BME280;29726;53.532;-1.478;2023-02-14T05:35:53;101887.19;;;9.21;91.91
24666;BME280;29726;53.532;-1.478;2023-02-14T05:38:37;101889.53;;;9.22;91.91
24666;BME280;29726;53.532;-1.478;2023-02-14T05:41:21;101894.31;;;9.22;92.07
24666;BME280;29726;53.532;-1.478;2023-02-14T05:44:05;101891.22;;;9.16;92.02
24666;BME280;29726;53.532;-1.478;2023-02-14T05:46:48;101884.84;;;9.16;91.91
24666;BME280;29726;53.532;-1.478;2023-02-14T05:49:34;101891.59;;;9.18;91.94
24666;BME280;29726;53.532;-1.478;2023-02-14T05:52:18;101865.25;;;9.00;91.65
24666;BME280;29726;53.532;-1.478;2023-02-14T05:55:03;101892.47;;;9.12;91.69
24666;BME280;29726;53.532;-1.478;2023-02-14T05:57:47;101888.94;;;9.11;91.63
24666;BME280;29726;53.532;-1.478;2023-02-14T06:00:31;101868.44;;;8.98;91.90
24666;BME280;29726;53.532;-1.478;2023-02-14T06:03:16;101877.47;;;9.06;91.54
24666;BME280;29726;53.532;-1.478;2023-02-14T06:05:59;101898.56;;;9.07;91.45
24666;BME280;29726;53.532;-1.478;2023-02-14T06:08:43;101886.31;;;9.01;91.44
24666;BME280;29726;53.532;-1.478;2023-02-14T06:11:27;101869.84;;;8.87;91.73
24666;BME280;29726;53.532;-1.478;2023-02-14T06:14:11;101900.25;;;9.01;91.59
24666;BME280;29726;53.532;-1.478;2023-02-14T06:16:55;101887.63;;;8.93;91.57
24666;BME280;29726;53.532;-1.478;2023-02-14T06:19:39;101891.34;;;8.86;91.40
24666;BME280;29726;53.532;-1.478;2023-02-14T06:22:23;101882.13;;;8.89;91.21
24666;BME280;29726;53.532;-1.478;2023-02-14T06:25:07;101888.84;;;8.92;91.15
24666;BME280;29726;53.532;-1.478;2023-02-14T06:27:54;101894.91;;;8.87;91.01
24666;BME280;29726;53.532;-1.478;2023-02-14T06:30:39;101881.13;;;8.76;90.93
24666;BME280;29726;53.532;-1.478;2023-02-14T06:33:22;101895.38;;;8.82;91.08
24666;BME280;29726;53.532;-1.478;2023-02-14T06:36:07;101906.84;;;8.87;91.01
24666;BME280;29726;53.532;-1.478;2023-02-14T06:38:51;101859.31;;;8.48;90.98
24666;BME280;29726;53.532;-1.478;2023-02-14T06:41:35;101903.84;;;8.75;90.96
24666;BME280;29726;53.532;-1.478;2023-02-14T06:44:19;101886.81;;;8.69;90.82
24666;BME280;29726;53.532;-1.478;2023-02-14T06:47:03;101907.47;;;8.72;91.00
24666;BME280;29726;53.532;-1.478;2023-02-14T06:49:47;101922.53;;;8.74;91.00
24666;BME280;29726;53.532;-1.478;2023-02-14T06:52:32;101904.91;;;8.58;90.79
24666;BME280;29726;53.532;-1.478;2023-02-14T06:55:16;101918.69;;;8.65;90.96
24666;BME280;29726;53.532;-1.478;2023-02-14T06:58:00;101915.56;;;8.63;90.98
24666;BME280;29726;53.532;-1.478;2023-02-14T07:00:45;101925.00;;;8.69;90.62
24666;BME280;29726;53.532;-1.478;2023-02-14T07:03:29;101924.63;;;8.67;90.63
24666;BME280;29726;53.532;-1.478;2023-02-14T07:06:13;101916.81;;;8.58;90.69
24666;BME280;29726;53.532;-1.478;2023-02-14T07:08:57;101903.72;;;8.55;90.49
24666;BME280;29726;53.532;-1.478;2023-02-14T07:11:41;101897.50;;;8.48;90.65
24666;BME280;29726;53.532;-1.478;2023-02-14T07:14:25;101933.91;;;8.60;90.44
24666;BME280;29726;53.532;-1.478;2023-02-14T07:17:09;101925.25;;;8.51;90.37
24666;BME280;29726;53.532;-1.478;2023-02-14T07:19:53;101911.41;;;8.48;90.65
24666;BME280;29726;53.532;-1.478;2023-02-14T07:22:37;101911.44;;;8.44;90.58
24666;BME280;29726;53.532;-1.478;2023-02-14T07:25:22;101916.59;;;8.46;90.36
24666;BME280;29726;53.532;-1.478;2023-02-14T07:28:05;101900.47;;;8.34;90.13
24666;BME280;29726;53.532;-1.478;2023-02-14T07:30:49;101918.25;;;8.40;90.28
24666;BME280;29726;53.532;-1.478;2023-02-14T07:33:33;101918.69;;;8.38;90.10
24666;BME280;29726;53.532;-1.478;2023-02-14T07:36:17;101936.53;;;8.41;90.05
24666;BME280;29726;53.532;-1.478;2023-02-14T07:39:02;101941.31;;;8.40;90.13
24666;BME280;29726;53.532;-1.478;2023-02-14T07:41:45;101930.28;;;8.33;90.40
24666;BME280;29726;53.532;-1.478;2023-02-14T07:44:29;101942.97;;;8.34;90.09
24666;BME280;29726;53.532;-1.478;2023-02-14T07:47:13;101935.84;;;8.33;90.34
24666;BME280;29726;53.532;-1.478;2023-02-14T07:49:57;101943.41;;;8.33;90.07
24666;BME280;29726;53.532;-1.478;2023-02-14T07:52:42;101934.34;;;8.25;90.54
24666;BME280;29726;53.532;-1.478;2023-02-14T07:55:26;101943.88;;;8.28;90.33
24666;BME280;29726;53.532;-1.478;2023-02-14T07:58:10;101933.50;;;8.28;90.39
24666;BME280;29726;53.532;-1.478;2023-02-14T08:00:54;101949.38;;;8.31;90.62
24666;BME280;29726;53.532;-1.478;2023-02-14T08:03:38;101950.66;;;8.27;90.55
24666;BME280;29726;53.532;-1.478;2023-02-14T08:06:22;101928.91;;;8.19;91.08
24666;BME280;29726;53.532;-1.478;2023-02-14T08:09:09;101938.38;;;8.21;91.47
24666;BME280;29726;53.532;-1.478;2023-02-14T08:11:55;101952.16;;;8.31;91.33
24666;BME280;29726;53.532;-1.478;2023-02-14T08:14:58;101942.75;;;8.22;91.50
24666;BME280;29726;53.532;-1.478;2023-02-14T08:18:02;101957.34;;;8.29;91.76
24666;BME280;29726;53.532;-1.478;2023-02-14T08:20:47;101907.66;;;7.98;91.83
24666;BME280;29726;53.532;-1.478;2023-02-14T08:23:32;101962.06;;;8.32;92.30
24666;BME280;29726;53.532;-1.478;2023-02-14T08:26:17;101960.56;;;8.28;92.54
24666;BME280;29726;53.532;-1.478;2023-02-14T08:29:01;101966.84;;;8.35;93.06
24666;BME280;29726;53.532;-1.478;2023-02-14T08:31:45;101913.13;;;8.05;93.45
24666;BME280;29726;53.532;-1.478;2023-02-14T08:34:29;101959.63;;;8.38;93.43
24666;BME280;29726;53.532;-1.478;2023-02-14T08:37:13;101957.66;;;8.38;93.36
24666;BME280;29726;53.532;-1.478;2023-02-14T08:39:57;101984.53;;;8.48;93.16
24666;BME280;29726;53.532;-1.478;2023-02-14T08:42:41;101961.56;;;8.41;93.22
24666;BME280;29726;53.532;-1.478;2023-02-14T08:45:25;101965.84;;;8.49;92.97
24666;BME280;29726;53.532;-1.478;2023-02-14T08:48:11;101972.06;;;8.60;92.72
24666;BME280;29726;53.532;-1.478;2023-02-14T08:50:55;101960.88;;;8.63;93.15
24666;BME280;29726;53.532;-1.478;2023-02-14T08:53:40;101946.53;;;8.65;93.18
24666;BME280;29726;53.532;-1.478;2023-02-14T08:56:24;101951.63;;;8.70;93.24
24666;BME280;29726;53.532;-1.478;2023-02-14T08:59:08;101943.28;;;8.70;93.73
24666;BME280;29726;53.532;-1.478;2023-02-14T09:01:52;101951.78;;;8.86;93.50
24666;BME280;29726;53.532;-1.478;2023-02-14T09:04:36;101943.06;;;8.84;93.64
24666;BME280;29726;53.532;-1.478;2023-02-14T09:07:20;101948.44;;;8.98;94.27
24666;BME280;29726;53.532;-1.478;2023-02-14T09:10:05;101935.72;;;8.97;94.09
24666;BME280;29726;53.532;-1.478;2023-02-14T09:12:49;101956.56;;;9.12;94.42
24666;BME280;29726;53.532;-1.478;2023-02-14T09:15:33;101937.88;;;9.12;94.89
24666;BME280;29726;53.532;-1.478;2023-02-14T09:18:17;101943.66;;;9.21;95.07
24666;BME280;29726;53.532;-1.478;2023-02-14T09:21:05;101937.16;;;9.31;95.23
24666;BME280;29726;53.532;-1.478;2023-02-14T09:23:50;101934.63;;;9.37;95.71
24666;BME280;29726;53.532;-1.478;2023-02-14T09:26:35;101923.03;;;9.42;96.19
24666;BME280;29726;53.532;-1.478;2023-02-14T09:29:25;101935.56;;;9.53;96.48
24666;BME280;29726;53.532;-1.478;2023-02-14T09:32:09;101928.69;;;9.58;96.91
24666;BME280;29726;53.532;-1.478;2023-02-14T09:34:53;101913.84;;;9.64;97.47
24666;BME280;29726;53.532;-1.478;2023-02-14T09:37:37;101899.41;;;9.69;98.18
24666;BME280;29726;53.532;-1.478;2023-02-14T09:40:21;101899.91;;;9.83;98.67
24666;BME280;29726;53.532;-1.478;2023-02-14T09:43:10;101894.22;;;9.90;99.25
24666;BME280;29726;53.532;-1.478;2023-02-14T09:46:00;101877.75;;;9.96;99.67
24666;BME280;29726;53.532;-1.478;2023-02-14T09:48:49;101883.56;;;10.05;99.89
24666;BME280;29726;53.532;-1.478;2023-02-14T09:51:35;101895.72;;;10.14;100.00
24666;BME280;29726;53.532;-1.478;2023-02-14T09:54:25;101895.22;;;10.19;100.00
24666;BME280;29726;53.532;-1.478;2023-02-14T09:57:20;101890.53;;;10.32;100.00
24666;BME280;29726;53.532;-1.478;2023-02-14T10:00:21;101846.28;;;10.15;100.00
24666;BME280;29726;53.532;-1.478;2023-02-14T10:12:39;101895.72;;;10.85;100.00
24666;BME280;29726;53.532;-1.478;2023-02-14T10:15:46;101904.19;;;10.98;100.00
24666;BME280;29726;53.532;-1.478;2023-02-14T10:18:43;101893.78;;;10.98;100.00
24666;BME280;29726;53.532;-1.478;2023-02-14T10:21:40;101890.72;;;11.09;100.00
24666;BME280;29726;53.532;-1.478;2023-02-14T10:24:29;101877.81;;;11.15;100.00
24666;BME280;29726;53.532;-1.478;2023-02-14T10:27:29;101886.63;;;11.29;100.00
24666;BME280;29726;53.532;-1.478;2023-02-14T10:30:17;101889.56;;;11.38;100.00
24666;BME280;29726;53.532;-1.478;2023-02-14T10:33:18;101897.44;;;11.59;100.00
24666;BME280;29726;53.532;-1.478;2023-02-14T10:36:07;101899.13;;;11.69;100.00
24666;BME280;29726;53.532;-1.478;2023-02-14T10:45:11;101873.94;;;11.97;100.00
24666;BME280;29726;53.532;-1.478;2023-02-14T10:48:19;101872.66;;;12.14;100.00
24666;BME280;29726;53.532;-1.478;2023-02-14T10:54:20;101849.72;;;12.32;100.00
24666;BME280;29726;53.532;-1.478;2023-02-14T10:57:15;101863.97;;;12.50;100.00
24666;BME280;29726;53.532;-1.478;2023-02-14T11:00:25;101858.69;;;12.64;100.00
24666;BME280;29726;53.532;-1.478;2023-02-14T11:03:12;101855.66;;;12.71;100.00
24666;BME280;29726;53.532;-1.478;2023-02-14T11:05:57;101856.44;;;12.84;100.00
24666;BME280;29726;53.532;-1.478;2023-02-14T11:08:41;101844.22;;;12.91;100.00
24666;BME280;29726;53.532;-1.478;2023-02-14T11:11:37;101838.28;;;13.01;100.00
24666;BME280;29726;53.532;-1.478;2023-02-14T11:14:37;101846.09;;;13.19;100.00
24666;BME280;29726;53.532;-1.478;2023-02-14T11:17:28;101846.81;;;13.31;100.00
24666;BME280;29726;53.532;-1.478;2023-02-14T11:20:23;101839.59;;;13.43;100.00
24666;BME280;29726;53.532;-1.478;2023-02-14T11:23:19;101836.41;;;13.53;100.00
24666;BME280;29726;53.532;-1.478;2023-02-14T11:26:25;101827.50;;;13.67;100.00
24666;BME280;29726;53.532;-1.478;2023-02-14T11:29:24;101816.91;;;13.71;100.00
24666;BME280;29726;53.532;-1.478;2023-02-14T11:32:29;101826.56;;;13.92;100.00
24666;BME280;29726;53.532;-1.478;2023-02-14T11:35:18;101784.44;;;13.92;100.00
24666;BME280;29726;53.532;-1.478;2023-02-14T11:38:06;101818.13;;;14.13;100.00
24666;BME280;29726;53.532;-1.478;2023-02-14T11:41:09;101824.44;;;14.26;100.00
24666;BME280;29726;53.532;-1.478;2023-02-14T11:44:12;101809.97;;;14.37;100.00
24666;BME280;29726;53.532;-1.478;2023-02-14T11:47:16;101803.47;;;14.49;100.00
24666;BME280;29726;53.532;-1.478;2023-02-14T11:50:21;101802.25;;;14.59;100.00
24666;BME280;29726;53.532;-1.478;2023-02-14T11:53:11;101791.81;;;14.68;100.00
24666;BME280;29726;53.532;-1.478;2023-02-14T11:55:57;101791.69;;;14.81;100.00
24666;BME280;29726;53.532;-1.478;2023-02-14T11:58:47;101795.78;;;14.89;100.00
24666;BME280;29726;53.532;-1.478;2023-02-14T12:01:34;101789.41;;;14.97;100.00
24666;BME280;29726;53.532;-1.478;2023-02-14T12:04:30;101792.84;;;15.10;100.00
24666;BME280;29726;53.532;-1.478;2023-02-14T12:07:26;101794.09;;;15.18;100.00
24666;BME280;29726;53.532;-1.478;2023-02-14T12:15:57;101761.00;;;15.22;100.00
24666;BME280;29726;53.532;-1.478;2023-02-14T12:21:50;101775.69;;;15.53;100.00
24666;BME280;29726;53.532;-1.478;2023-02-14T12:24:55;101760.03;;;15.61;100.00
24666;BME280;29726;53.532;-1.478;2023-02-14T12:28:04;101769.25;;;15.70;100.00
24666;BME280;29726;53.532;-1.478;2023-02-14T12:30:53;101763.75;;;15.76;100.00
24666;BME280;29726;53.532;-1.478;2023-02-14T12:33:37;101732.47;;;15.74;100.00
24666;BME280;29726;53.532;-1.478;2023-02-14T12:39:43;101750.41;;;16.03;100.00
24666;BME280;29726;53.532;-1.478;2023-02-14T12:42:44;101740.63;;;16.13;100.00
24666;BME280;29726;53.532;-1.478;2023-02-14T12:45:44;101732.94;;;16.23;100.00
24666;BME280;29726;53.532;-1.478;2023-02-14T12:54:56;101731.25;;;16.49;100.00
24666;BME280;29726;53.532;-1.478;2023-02-14T13:16:37;101777.50;;;16.98;100.00
24666;BME280;29726;53.532;-1.478;2023-02-14T13:22:28;101755.53;;;16.46;100.00
24666;BME280;29726;53.532;-1.478;2023-02-14T13:25:27;101759.50;;;16.31;100.00
24666;BME280;29726;53.532;-1.478;2023-02-14T13:28:17;101682.38;;;16.19;100.00
24666;BME280;29726;53.532;-1.478;2023-02-14T13:31:03;101593.16;;;16.16;100.00
24666;BME280;29726;53.532;-1.478;2023-02-14T13:33:51;101582.25;;;16.33;100.00
24666;BME280;29726;53.532;-1.478;2023-02-14T13:36:37;101563.38;;;16.48;100.00
24666;BME280;29726;53.532;-1.478;2023-02-14T13:39:30;101560.69;;;16.53;100.00
24666;BME280;29726;53.532;-1.478;2023-02-14T13:42:56;101562.66;;;16.76;100.00
24666;BME280;29726;53.532;-1.478;2023-02-14T13:48:25;101599.81;;;16.89;100.00
24666;BME280;29726;53.532;-1.478;2023-02-14T13:51:10;101586.69;;;17.00;100.00
24666;BME280;29726;53.532;-1.478;2023-02-14T13:53:54;101586.78;;;17.06;100.00
24666;BME280;29726;53.532;-1.478;2023-02-14T13:56:37;101579.31;;;17.17;100.00
24666;BME280;29726;53.532;-1.478;2023-02-14T13:59:25;101576.38;;;17.26;100.00
24666;BME280;29726;53.532;-1.478;2023-02-14T14:02:40;101584.28;;;17.37;100.00
24666;BME280;29726;53.532;-1.478;2023-02-14T14:08:37;101522.63;;;17.50;100.00
24666;BME280;29726;53.532;-1.478;2023-02-14T14:17:17;101591.84;;;17.31;100.00
24666;BME280;29726;53.532;-1.478;2023-02-14T14:20:29;101683.41;;;17.68;100.00
24666;BME280;29726;53.532;-1.478;2023-02-14T14:23:34;101677.81;;;17.73;100.00
24666;BME280;29726;53.532;-1.478;2023-02-14T14:29:45;101647.34;;;17.63;100.00
24666;BME280;29726;53.532;-1.478;2023-02-14T14:32:33;101657.25;;;17.87;100.00
24666;BME280;29726;53.532;-1.478;2023-02-14T14:35:20;101691.25;;;17.93;100.00
24666;BME280;29726;53.532;-1.478;2023-02-14T14:38:11;101649.88;;;17.90;100.00
24666;BME280;29726;53.532;-1.478;2023-02-14T14:40:56;101615.53;;;17.97;100.00
24666;BME280;29726;53.532;-1.478;2023-02-14T14:43:40;101605.31;;;17.99;100.00
24666;BME280;29726;53.532;-1.478;2023-02-14T14:46:24;101625.28;;;17.96;100.00
24666;BME280;29726;53.532;-1.478;2023-02-14T14:49:09;101629.28;;;17.89;100.00
24666;BME280;29726;53.532;-1.478;2023-02-14T14:51:56;101651.94;;;18.09;100.00
24666;BME280;29726;53.532;-1.478;2023-02-14T14:54:40;101650.69;;;18.10;100.00
24666;BME280;29726;53.532;-1.478;2023-02-14T14:57:24;101647.84;;;18.10;100.00
24666;BME280;29726;53.532;-1.478;2023-02-14T15:00:33;101658.06;;;18.22;100.00
24666;BME280;29726;53.532;-1.478;2023-02-14T15:03:20;101654.25;;;18.25;100.00
24666;BME280;29726;53.532;-1.478;2023-02-14T15:06:18;101664.09;;;18.30;100.00
24666;BME280;29726;53.532;-1.478;2023-02-14T15:09:12;101621.59;;;18.24;100.00
24666;BME280;29726;53.532;-1.478;2023-02-14T15:11:59;101629.47;;;18.35;100.00
24666;BME280;29726;53.532;-1.478;2023-02-14T15:15:03;101611.84;;;18.25;100.00
24666;BME280;29726;53.532;-1.478;2023-02-14T15:17:48;101635.97;;;18.41;100.00
24666;BME280;29726;53.532;-1.478;2023-02-14T15:20:33;101618.50;;;18.42;100.00
24666;BME280;29726;53.532;-1.478;2023-02-14T15:23:23;101626.06;;;18.50;100.00
24666;BME280;29726;53.532;-1.478;2023-02-14T15:26:11;101627.63;;;18.51;100.00
24666;BME280;29726;53.532;-1.478;2023-02-14T15:29:03;101622.75;;;18.52;100.00
24666;BME280;29726;53.532;-1.478;2023-02-14T15:31:48;101627.78;;;18.62;100.00
24666;BME280;29726;53.532;-1.478;2023-02-14T15:34:34;101610.56;;;18.66;100.00
24666;BME280;29726;53.532;-1.478;2023-02-14T15:37:22;101594.19;;;18.70;100.00
24666;BME280;29726;53.532;-1.478;2023-02-14T15:40:22;101600.81;;;18.67;100.00
24666;BME280;29726;53.532;-1.478;2023-02-14T15:43:32;101605.78;;;18.72;100.00
24666;BME280;29726;53.532;-1.478;2023-02-14T15:46:32;101610.16;;;18.73;100.00
24666;BME280;29726;53.532;-1.478;2023-02-14T15:49:20;101614.75;;;18.70;100.00
24666;BME280;29726;53.532;-1.478;2023-02-14T15:52:05;101616.81;;;18.70;100.00
24666;BME280;29726;53.532;-1.478;2023-02-14T15:54:50;101596.66;;;18.62;100.00
24666;BME280;29726;53.532;-1.478;2023-02-14T15:57:35;101597.50;;;18.68;100.00
24666;BME280;29726;53.532;-1.478;2023-02-14T16:00:20;101604.78;;;18.75;100.00
24666;BME280;29726;53.532;-1.478;2023-02-14T16:03:07;101596.56;;;18.77;100.00
24666;BME280;29726;53.532;-1.478;2023-02-14T16:05:54;101614.03;;;18.75;100.00
24666;BME280;29726;53.532;-1.478;2023-02-14T16:08:39;101602.72;;;18.75;100.00
24666;BME280;29726;53.532;-1.478;2023-02-14T16:11:34;101606.81;;;18.74;100.00
24666;BME280;29726;53.532;-1.478;2023-02-14T16:14:28;101615.03;;;18.72;100.00
24666;BME280;29726;53.532;-1.478;2023-02-14T16:17:13;101569.16;;;18.43;100.00
24666;BME280;29726;53.532;-1.478;2023-02-14T16:19:57;101572.97;;;18.40;100.00
24666;BME280;29726;53.532;-1.478;2023-02-14T16:22:42;101611.84;;;18.65;100.00
24666;BME280;29726;53.532;-1.478;2023-02-14T16:25:26;101565.50;;;18.37;100.00
24666;BME280;29726;53.532;-1.478;2023-02-14T16:28:10;101623.44;;;18.67;100.00